createdAt,value
2018-02-18T00:01:48.247Z,27.65
2018-02-18T00:04:14.638Z,30.52
2018-02-18T00:06:41.447Z,27.00
2018-02-18T00:09:08.808Z,30.25
2018-02-18T00:11:35.109Z,26.92
2018-02-18T00:14:03.069Z,30.40
2018-02-18T00:16:30.109Z,30.23
2018-02-18T00:18:58.211Z,29.70
2018-02-18T00:21:25.248Z,27.37
2018-02-18T00:23:52.760Z,26.30
2018-02-18T00:26:19.751Z,29.58
2018-02-18T00:28:46.085Z,31.15
2018-02-18T00:31:12.319Z,33.08
2018-02-18T00:33:38.750Z,33.30
2018-02-18T00:36:05.517Z,31.65
2018-02-18T00:38:31.771Z,37.47
2018-02-18T00:40:58.169Z,37.90
2018-02-18T00:43:25.008Z,46.60
2018-02-18T00:45:51.211Z,37.75
2018-02-18T00:48:18.208Z,45.10
2018-02-18T00:50:45.390Z,39.92
2018-02-18T00:53:12.338Z,42.38
2018-02-18T00:55:39.274Z,35.72
2018-02-18T00:58:06.894Z,30.05
2018-02-18T01:00:33.359Z,34.42
2018-02-18T01:03:00.323Z,35.92
2018-02-18T01:05:27.573Z,31.65
2018-02-18T01:07:55.425Z,31.58
2018-02-18T01:10:22.395Z,36.40
2018-02-18T01:12:48.587Z,28.23
2018-02-18T01:15:14.819Z,32.00
2018-02-18T01:17:41.029Z,30.20
2018-02-18T01:20:07.256Z,28.48
2018-02-18T01:22:34.080Z,29.87
2018-02-18T01:25:01.832Z,29.12
2018-02-18T01:27:29.113Z,35.00
2018-02-18T01:29:55.966Z,30.50
2018-02-18T01:32:23.259Z,32.97
2018-02-18T01:34:49.463Z,31.55
2018-02-18T01:37:16.449Z,26.67
2018-02-18T01:39:45.007Z,30.12
2018-02-18T01:42:11.214Z,27.83
2018-02-18T01:44:39.098Z,27.65
2018-02-18T01:47:06.059Z,27.83
2018-02-18T01:49:32.826Z,29.67
2018-02-18T01:51:59.593Z,28.95
2018-02-18T01:54:26.368Z,28.20
2018-02-18T01:56:52.597Z,30.50
2018-02-18T01:59:18.961Z,31.25
2018-02-18T02:01:45.170Z,26.95
2018-02-18T02:04:11.539Z,26.45
2018-02-18T02:06:37.903Z,25.15
2018-02-18T02:09:04.866Z,29.48
2018-02-18T02:11:31.754Z,33.78
2018-02-18T02:13:58.739Z,26.58
2018-02-18T02:16:26.215Z,29.92
2018-02-18T02:18:52.425Z,29.00
2018-02-18T02:21:19.907Z,33.58
2018-02-18T02:23:47.487Z,23.58
2018-02-18T02:26:14.537Z,26.62
2018-02-18T02:28:41.299Z,24.12
2018-02-18T02:31:07.516Z,28.85
2018-02-18T02:33:34.262Z,29.35
2018-02-18T02:36:01.524Z,25.58
2018-02-18T02:38:28.296Z,28.02
2018-02-18T02:40:55.619Z,26.62
2018-02-18T02:43:22.776Z,26.37
2018-02-18T02:45:50.301Z,31.90
2018-02-18T02:48:16.557Z,30.35
2018-02-18T02:50:43.426Z,26.90
2018-02-18T02:53:10.379Z,28.55
2018-02-18T02:55:37.237Z,24.27
2018-02-18T02:58:03.736Z,35.85
2018-02-18T03:00:30.699Z,25.85
2018-02-18T03:02:56.902Z,32.13
2018-02-18T03:05:23.882Z,28.30
2018-02-18T03:07:50.394Z,26.50
2018-02-18T03:10:17.661Z,26.80
2018-02-18T03:12:45.280Z,29.25
2018-02-18T03:15:13.050Z,29.92
2018-02-18T03:17:40.837Z,32.45
2018-02-18T03:20:07.555Z,32.67
2018-02-18T03:22:33.758Z,30.37
2018-02-18T03:25:00.892Z,34.20
2018-02-18T03:27:28.026Z,34.72
2018-02-18T03:29:54.394Z,34.50
2018-02-18T03:32:20.771Z,30.30
2018-02-18T03:34:47.204Z,30.95
2018-02-18T03:37:13.928Z,38.70
2018-02-18T03:39:40.912Z,32.45
2018-02-18T03:42:07.533Z,35.45
2018-02-18T03:44:34.595Z,33.10
2018-02-18T03:47:00.808Z,27.77
2018-02-18T03:49:27.686Z,34.45
2018-02-18T03:51:54.676Z,28.38
2018-02-18T03:54:21.607Z,29.50
2018-02-18T03:56:47.806Z,33.22
2018-02-18T03:59:14.373Z,32.00
2018-02-18T04:01:41.357Z,29.58
2018-02-18T04:04:08.686Z,29.70
2018-02-18T04:06:35.881Z,31.15
2018-02-18T04:09:02.911Z,25.95
2018-02-18T04:11:29.207Z,32.35
2018-02-18T04:13:56.194Z,31.52
2018-02-18T04:16:23.675Z,29.05
2018-02-18T04:18:50.710Z,28.73
2018-02-18T04:21:17.814Z,32.75
2018-02-18T04:23:44.786Z,31.02
2018-02-18T04:26:10.987Z,29.25
2018-02-18T04:28:38.234Z,27.10
2018-02-18T04:31:04.973Z,27.52
2018-02-18T04:33:32.680Z,37.80
2018-02-18T04:35:59.440Z,31.95
2018-02-18T04:38:26.145Z,31.00
2018-02-18T04:40:53.335Z,34.65
2018-02-18T04:43:19.533Z,31.87
2018-02-18T04:45:46.276Z,39.63
2018-02-18T04:48:12.531Z,36.25
2018-02-18T04:50:38.845Z,32.53
2018-02-18T04:53:05.700Z,35.00
2018-02-18T04:55:32.207Z,37.90
2018-02-18T04:57:59.885Z,47.13
2018-02-18T05:00:27.325Z,33.47
2018-02-18T05:02:53.518Z,34.38
2018-02-18T05:05:20.491Z,34.35
2018-02-18T05:07:46.809Z,34.22
2018-02-18T05:10:13.123Z,36.28
2018-02-18T05:12:40.373Z,42.30
2018-02-18T05:15:08.282Z,45.33
2018-02-18T05:17:34.697Z,45.85
2018-02-18T05:20:01.544Z,48.10
2018-02-18T05:22:28.743Z,57.08
2018-02-18T05:24:55.212Z,47.13
2018-02-18T05:27:22.250Z,50.35
2018-02-18T05:29:50.905Z,60.10
2018-02-18T05:32:17.093Z,51.97
2018-02-18T05:34:44.806Z,64.85
2018-02-18T05:37:12.755Z,67.90
2018-02-18T05:39:39.655Z,44.60
2018-02-18T05:42:06.260Z,51.22
2018-02-18T05:44:33.332Z,64.10
2018-02-18T05:46:59.520Z,54.85
2018-02-18T05:49:25.941Z,52.47
2018-02-18T05:51:52.223Z,64.40
2018-02-18T05:54:18.589Z,71.32
2018-02-18T05:56:45.724Z,59.33
2018-02-18T05:59:12.810Z,63.35
2018-02-18T06:01:39.190Z,62.60
2018-02-18T06:04:05.966Z,51.58
2018-02-18T06:06:33.053Z,69.60
2018-02-18T06:08:59.998Z,67.10
2018-02-18T06:11:26.383Z,54.60
2018-02-18T06:13:54.058Z,60.83
2018-02-18T06:16:20.250Z,61.17
2018-02-18T06:18:46.454Z,49.58
2018-02-18T06:21:13.040Z,55.20
2018-02-18T06:23:41.060Z,54.30
2018-02-18T06:26:07.289Z,53.72
2018-02-18T06:28:33.486Z,43.17
2018-02-18T06:31:00.906Z,51.03
2018-02-18T06:33:28.407Z,44.65
2018-02-18T06:35:55.612Z,47.60
2018-02-18T06:38:22.605Z,53.83
2018-02-18T06:40:49.664Z,58.40
2018-02-18T06:43:16.707Z,57.58
2018-02-18T06:45:43.713Z,67.05
2018-02-18T06:48:10.419Z,47.55
2018-02-18T06:50:36.638Z,49.72
2018-02-18T06:53:02.980Z,48.50
2018-02-18T06:55:29.195Z,53.45
2018-02-18T06:57:55.488Z,44.47
2018-02-18T07:00:22.664Z,50.47
2018-02-18T07:02:48.954Z,55.72
2018-02-18T07:05:15.613Z,49.00
2018-02-18T07:07:42.703Z,46.95
2018-02-18T07:10:09.363Z,47.00
2018-02-18T07:12:36.190Z,51.72
2018-02-18T07:15:02.411Z,53.70
2018-02-18T07:17:32.758Z,46.97
2018-02-18T07:19:59.195Z,47.70
2018-02-18T07:22:25.626Z,44.58
2018-02-18T07:24:52.382Z,56.50
2018-02-18T07:27:18.906Z,63.97
2018-02-18T07:29:45.444Z,46.30
2018-02-18T07:32:12.657Z,55.90
2018-02-18T07:34:38.879Z,49.97
2018-02-18T07:37:05.540Z,52.88
2018-02-18T07:39:32.224Z,55.75
2018-02-18T07:41:59.600Z,77.82
2018-02-18T07:44:26.471Z,55.53
2018-02-18T07:46:53.434Z,58.95
2018-02-18T07:49:20.291Z,56.53
2018-02-18T07:51:46.623Z,75.60
2018-02-18T07:54:13.553Z,64.10
2018-02-18T07:56:40.867Z,55.25
2018-02-18T07:59:07.183Z,57.17
2018-02-18T08:01:33.426Z,47.08
2018-02-18T08:04:00.818Z,56.25
2018-02-18T08:06:27.194Z,56.15
2018-02-18T08:08:54.822Z,57.70
2018-02-18T08:11:21.748Z,47.15
2018-02-18T08:13:48.612Z,49.15
2018-02-18T08:16:16.239Z,51.92
2018-02-18T08:18:43.347Z,57.85
2018-02-18T08:21:10.839Z,49.67
2018-02-18T08:23:38.193Z,56.88
2018-02-18T08:26:05.029Z,53.65
2018-02-18T08:28:32.844Z,47.88
2018-02-18T08:30:59.639Z,50.20
2018-02-18T08:33:26.973Z,55.58
2018-02-18T08:35:54.291Z,53.05
2018-02-18T08:38:20.496Z,41.75
2018-02-18T08:40:47.701Z,49.92
2018-02-18T08:43:14.677Z,57.72
2018-02-18T08:45:41.772Z,45.60
2018-02-18T08:48:08.707Z,42.22
2018-02-18T08:50:35.712Z,90.03
2018-02-18T08:53:02.592Z,47.88
2018-02-18T08:55:29.327Z,44.65
2018-02-18T08:57:56.600Z,40.12
2018-02-18T09:00:23.629Z,40.53
2018-02-18T09:02:50.435Z,47.38
2018-02-18T09:05:16.687Z,41.72
2018-02-18T09:07:43.460Z,44.30
2018-02-18T09:10:10.961Z,40.78
2018-02-18T09:12:38.374Z,39.78
2018-02-18T09:15:05.452Z,40.00
2018-02-18T09:17:31.682Z,42.13
2018-02-18T09:19:58.597Z,42.97
2018-02-18T09:22:25.522Z,39.17
2018-02-18T09:24:52.469Z,40.33
2018-02-18T09:27:18.660Z,34.55
2018-02-18T09:29:44.859Z,40.72
2018-02-18T09:32:11.065Z,40.40
2018-02-18T09:34:38.011Z,39.97
2018-02-18T09:37:05.103Z,41.78
2018-02-18T09:39:31.912Z,41.55
2018-02-18T09:41:59.052Z,38.88
2018-02-18T09:44:26.956Z,44.03
2018-02-18T09:46:54.062Z,46.85
2018-02-18T09:49:21.326Z,58.63
2018-02-18T09:51:48.379Z,46.60
2018-02-18T09:54:14.621Z,63.28
2018-02-18T09:56:41.403Z,58.03
2018-02-18T09:59:07.907Z,58.67
2018-02-18T10:01:34.118Z,72.12
2018-02-18T10:04:00.335Z,58.85
2018-02-18T10:06:27.196Z,65.18
2018-02-18T10:08:54.014Z,57.60
2018-02-18T10:11:20.466Z,66.05
2018-02-18T10:13:47.192Z,57.28
2018-02-18T10:16:15.586Z,59.35
2018-02-18T10:18:42.229Z,52.67
2018-02-18T10:21:09.859Z,56.40
2018-02-18T10:23:37.511Z,66.10
2018-02-18T10:26:04.529Z,57.90
2018-02-18T10:28:31.072Z,54.38
2018-02-18T10:30:58.177Z,51.10
2018-02-18T10:33:24.372Z,53.72
2018-02-18T10:35:51.852Z,47.25
2018-02-18T10:38:18.581Z,46.17
2018-02-18T10:40:45.325Z,42.72
2018-02-18T10:43:12.348Z,45.15
2018-02-18T10:45:39.420Z,48.42
2018-02-18T10:48:05.926Z,49.75
2018-02-18T10:50:32.681Z,45.78
2018-02-18T10:53:00.993Z,52.05
2018-02-18T10:55:27.874Z,46.42
2018-02-18T10:57:55.019Z,57.70
2018-02-18T11:00:21.241Z,39.55
2018-02-18T11:02:47.416Z,46.03
2018-02-18T11:05:14.042Z,43.90
2018-02-18T11:07:40.995Z,45.20
2018-02-18T11:10:07.611Z,45.50
2018-02-18T11:12:34.553Z,45.75
2018-02-18T11:15:01.609Z,48.28
2018-02-18T11:17:28.832Z,47.15
2018-02-18T11:19:55.121Z,42.13
2018-02-18T11:22:21.497Z,45.40
2018-02-18T11:24:48.007Z,35.80
2018-02-18T11:27:14.733Z,39.55
2018-02-18T11:29:42.422Z,37.92
2018-02-18T11:32:09.214Z,40.80
2018-02-18T11:34:35.636Z,37.28
2018-02-18T11:37:03.152Z,38.53
2018-02-18T11:39:29.513Z,39.95
2018-02-18T11:41:57.908Z,41.03
2018-02-18T11:44:24.128Z,41.22
2018-02-18T11:46:52.152Z,40.50
2018-02-18T11:49:19.363Z,43.90
2018-02-18T11:51:46.042Z,39.20
2018-02-18T11:54:13.591Z,42.03
2018-02-18T11:56:40.335Z,42.45
2018-02-18T11:59:06.739Z,38.20
2018-02-18T12:01:33.010Z,37.33
2018-02-18T12:04:00.137Z,42.00
2018-02-18T12:06:27.402Z,37.53
2018-02-18T12:08:54.044Z,35.92
2018-02-18T12:11:20.384Z,40.78
2018-02-18T12:13:55.054Z,38.53
2018-02-18T12:16:21.675Z,38.30
2018-02-18T12:18:49.594Z,33.28
2018-02-18T12:21:15.775Z,38.85
2018-02-18T12:23:43.760Z,39.38
2018-02-18T12:26:10.921Z,41.47
2018-02-18T12:28:38.146Z,42.15
2018-02-18T12:31:05.466Z,29.85
2018-02-18T12:33:32.444Z,41.47
2018-02-18T12:35:59.655Z,37.85
2018-02-18T12:38:25.858Z,38.00
2018-02-18T12:40:52.719Z,40.20
2018-02-18T12:43:18.945Z,37.40
2018-02-18T12:45:45.177Z,40.58
2018-02-18T12:48:11.367Z,37.08
2018-02-18T12:50:37.600Z,38.40
2018-02-18T12:53:03.982Z,35.55
2018-02-18T12:55:30.468Z,39.60
2018-02-18T12:57:58.130Z,36.80
2018-02-18T13:00:24.507Z,38.03
2018-02-18T13:02:50.967Z,39.58
2018-02-18T13:05:17.264Z,38.92
2018-02-18T13:07:43.671Z,39.08
2018-02-18T13:10:09.940Z,33.80
2018-02-18T13:12:37.588Z,35.88
2018-02-18T13:15:04.632Z,18.52
2018-02-18T13:17:31.822Z,18.55
2018-02-18T13:19:58.168Z,21.27
2018-02-18T13:22:24.429Z,18.35
2018-02-18T13:24:50.916Z,16.90
2018-02-18T13:27:18.116Z,16.42
2018-02-18T13:29:44.414Z,16.75
2018-02-18T13:32:11.249Z,18.05
2018-02-18T13:34:37.557Z,21.37
2018-02-18T13:37:04.518Z,15.75
2018-02-18T13:39:30.848Z,18.65
2018-02-18T13:41:57.068Z,15.95
2018-02-18T13:44:23.255Z,16.60
2018-02-18T13:46:49.489Z,16.87
2018-02-18T13:49:16.176Z,17.37
2018-02-18T13:51:43.565Z,16.42
2018-02-18T13:54:09.923Z,13.98
2018-02-18T13:56:36.987Z,15.90
2018-02-18T13:59:03.999Z,16.50
2018-02-18T14:01:30.650Z,12.93
2018-02-18T14:03:58.352Z,18.45
2018-02-18T14:06:24.760Z,13.57
2018-02-18T14:08:52.933Z,17.15
2018-02-18T14:11:20.372Z,19.60
2018-02-18T14:13:47.139Z,17.42
2018-02-18T14:16:19.886Z,17.20
2018-02-18T14:18:47.396Z,18.48
2018-02-18T14:21:13.817Z,20.92
2018-02-18T14:23:40.059Z,19.25
2018-02-18T14:26:07.505Z,20.33
2018-02-18T14:28:34.499Z,16.95
2018-02-18T14:31:00.735Z,18.23
2018-02-18T14:33:27.313Z,17.58
2018-02-18T14:35:54.459Z,24.70
2018-02-18T14:38:21.396Z,16.35
2018-02-18T14:40:48.250Z,16.70
2018-02-18T14:43:26.760Z,19.05
2018-02-18T14:46:05.274Z,16.75
2018-02-18T14:48:43.893Z,18.42
2018-02-18T14:51:22.753Z,18.62
2018-02-18T14:54:02.461Z,17.77
2018-02-18T14:56:34.905Z,15.95
2018-02-18T14:59:01.327Z,14.70
2018-02-18T15:01:28.110Z,19.52
2018-02-18T15:03:54.875Z,14.25
2018-02-18T15:06:21.644Z,18.67
2018-02-18T15:08:48.494Z,13.75
2018-02-18T15:11:15.607Z,15.18
2018-02-18T15:13:41.824Z,17.10
2018-02-18T15:16:08.045Z,16.50
2018-02-18T15:18:34.554Z,17.67
2018-02-18T15:21:02.896Z,18.05
2018-02-18T15:23:30.230Z,15.40
2018-02-18T15:25:56.664Z,19.10
2018-02-18T15:28:23.817Z,16.30
2018-02-18T15:30:50.637Z,14.43
2018-02-18T15:33:17.998Z,16.48
2018-02-18T15:35:44.219Z,12.75
2018-02-18T15:38:10.989Z,17.15
2018-02-18T15:40:38.232Z,16.75
2018-02-18T15:43:05.480Z,16.40
2018-02-18T15:45:32.113Z,18.67
2018-02-18T15:47:58.751Z,19.02
2018-02-18T15:50:24.945Z,17.40
2018-02-18T15:52:51.490Z,15.15
2018-02-18T15:55:18.562Z,21.70
2018-02-18T15:57:45.396Z,18.62
2018-02-18T16:00:12.817Z,16.40
2018-02-18T16:02:40.534Z,17.73
2018-02-18T16:05:06.776Z,17.52
2018-02-18T16:07:33.264Z,16.77
2018-02-18T16:10:00.360Z,14.93
2018-02-18T16:12:26.621Z,17.35
2018-02-18T16:14:54.107Z,19.33
2018-02-18T16:17:20.367Z,18.42
2018-02-18T16:19:47.203Z,21.58
2018-02-18T16:22:13.996Z,18.05
2018-02-18T16:24:40.947Z,15.20
2018-02-18T16:27:07.418Z,19.50
2018-02-18T16:29:34.673Z,16.60
2018-02-18T16:32:00.939Z,14.18
2018-02-18T16:34:27.973Z,13.30
2018-02-18T16:36:54.262Z,14.15
2018-02-18T16:39:21.343Z,10.45
2018-02-18T16:41:47.829Z,11.45
2018-02-18T16:44:15.434Z,11.73
2018-02-18T16:46:44.017Z,13.00
2018-02-18T16:49:11.755Z,9.80
2018-02-18T16:51:38.749Z,11.43
2018-02-18T16:54:06.550Z,13.07
2018-02-18T16:56:33.755Z,10.23
2018-02-18T16:59:01.830Z,12.80
2018-02-18T17:01:28.814Z,11.48
2018-02-18T17:03:55.191Z,11.90
2018-02-18T17:06:22.018Z,10.65
2018-02-18T17:08:48.708Z,13.02
2018-02-18T17:11:15.230Z,14.90
2018-02-18T17:13:42.856Z,13.27
2018-02-18T17:16:10.214Z,13.85
2018-02-18T17:18:38.396Z,13.52
2018-02-18T17:21:05.885Z,16.48
2018-02-18T17:23:33.572Z,14.82
2018-02-18T17:25:59.897Z,17.20
2018-02-18T17:28:26.233Z,12.10
2018-02-18T17:30:52.453Z,14.75
2018-02-18T17:33:19.758Z,14.07
2018-02-18T17:35:46.556Z,9.77
2018-02-18T17:38:12.973Z,12.30
2018-02-18T17:40:39.219Z,12.63
2018-02-18T17:43:05.476Z,15.15
2018-02-18T17:45:32.700Z,14.77
2018-02-18T17:47:58.967Z,13.30
2018-02-18T17:50:25.221Z,14.30
2018-02-18T17:52:52.243Z,15.23
2018-02-18T17:55:19.882Z,11.98
2018-02-18T17:57:47.629Z,12.10
2018-02-18T18:00:14.105Z,11.20
2018-02-18T18:02:41.381Z,17.73
2018-02-18T18:05:08.349Z,15.85
2018-02-18T18:07:34.714Z,18.33
2018-02-18T18:10:01.595Z,13.85
2018-02-18T18:12:29.123Z,13.45
2018-02-18T18:14:55.378Z,12.45
2018-02-18T18:17:22.967Z,10.38
2018-02-18T18:19:49.440Z,10.20
2018-02-18T18:22:16.541Z,9.00
2018-02-18T18:24:43.587Z,11.65
2018-02-18T18:27:10.342Z,12.75
2018-02-18T18:29:36.866Z,12.23
2018-02-18T18:32:03.145Z,10.75
2018-02-18T18:34:29.384Z,10.30
2018-02-18T18:36:55.599Z,14.38
2018-02-18T18:39:21.790Z,9.80
2018-02-18T18:41:48.055Z,8.02
2018-02-18T18:44:16.064Z,9.43
2018-02-18T18:46:43.399Z,11.52
2018-02-18T18:49:10.395Z,11.75
2018-02-18T18:51:37.611Z,10.73
2018-02-18T18:54:04.577Z,11.98
2018-02-18T18:56:30.951Z,11.52
2018-02-18T18:58:58.092Z,11.00
2018-02-18T19:01:24.327Z,9.52
2018-02-18T19:03:52.333Z,9.40
2018-02-18T19:06:18.759Z,10.82
2018-02-18T19:08:45.148Z,9.68
2018-02-18T19:11:11.448Z,9.23
2018-02-18T19:13:38.309Z,10.43
2018-02-18T19:16:04.613Z,12.93
2018-02-18T19:18:30.951Z,10.27
2018-02-18T19:20:57.455Z,8.88
2018-02-18T19:23:24.428Z,12.80
2018-02-18T19:25:50.846Z,10.75
2018-02-18T19:28:19.213Z,11.45
2018-02-18T19:30:46.564Z,12.00
2018-02-18T19:33:13.445Z,13.85
2018-02-18T19:35:40.225Z,13.13
2018-02-18T19:38:07.607Z,10.45
2018-02-18T19:40:33.905Z,11.02
2018-02-18T19:43:00.618Z,11.73
2018-02-18T19:45:27.683Z,13.10
2018-02-18T19:47:54.496Z,10.38
2018-02-18T19:50:20.846Z,10.60
2018-02-18T19:52:47.114Z,9.52
2018-02-18T19:55:14.205Z,9.73
2018-02-18T19:57:42.184Z,11.82
2018-02-18T20:00:09.251Z,13.62
2018-02-18T20:02:35.469Z,8.85
2018-02-18T20:05:01.990Z,13.18
2018-02-18T20:07:28.842Z,8.38
2018-02-18T20:09:56.419Z,7.87
2018-02-18T20:12:24.331Z,9.70
2018-02-18T20:14:50.767Z,7.90
2018-02-18T20:17:17.474Z,6.70
2018-02-18T20:19:44.563Z,9.25
2018-02-18T20:22:11.358Z,9.95
2018-02-18T20:24:38.603Z,5.97
2018-02-18T20:27:04.892Z,10.25
2018-02-18T20:29:32.737Z,7.93
2018-02-18T20:31:59.734Z,9.65
2018-02-18T20:37:22.647Z,7.75
2018-02-18T20:45:36.827Z,8.63
2018-02-18T20:48:08.233Z,9.15
2018-02-18T20:50:38.049Z,8.35
2018-02-18T20:53:06.250Z,10.20
2018-02-18T20:55:33.297Z,12.40
2018-02-18T21:00:49.742Z,9.93
2018-02-18T21:05:59.249Z,10.35
2018-02-18T21:08:25.914Z,9.65
2018-02-18T21:10:53.052Z,9.63
2018-02-18T21:13:20.693Z,10.27
2018-02-18T21:15:51.855Z,10.05
2018-02-18T21:18:18.602Z,12.27
2018-02-18T21:20:45.758Z,10.82
2018-02-18T21:23:14.735Z,9.07
2018-02-18T21:25:41.352Z,10.48
2018-02-18T21:28:07.741Z,11.27
2018-02-18T21:30:36.951Z,10.15
2018-02-18T21:42:48.539Z,9.05
2018-02-18T21:45:18.474Z,9.65
2018-02-18T21:47:46.113Z,11.10
2018-02-18T21:56:17.134Z,10.82
2018-02-18T22:04:35.441Z,12.57
2018-02-18T22:07:07.870Z,8.30
2018-02-18T22:09:37.308Z,12.77
2018-02-18T22:12:07.068Z,9.93
2018-02-18T22:14:38.620Z,10.85
2018-02-18T22:17:10.198Z,10.07
2018-02-18T22:19:39.255Z,8.63
2018-02-18T22:22:05.773Z,10.93
2018-02-18T22:24:39.155Z,9.20
2018-02-18T23:46:51.167Z,9.80
2018-02-18T23:49:18.679Z,12.13
2018-02-18T23:51:45.730Z,9.43
2018-02-18T23:54:13.043Z,10.25
2018-02-18T23:56:39.903Z,13.27
2018-02-18T23:59:06.116Z,11.43
